Bexar, Arkansas
Current Conditions -  °F | °C
As of 9:53 AM on Thursday 29 Jan 2015 (Local Time) from KBPK Reporting Station
Overcast Overcast  
Wind Chill: 43°   Ceiling: 2600
Heat Index: 48°   Visibility: 7mi
Dew Point: 37°   Wind: 10mph
Humidity: 66%   Direction: 320°NW
Pressure: 30.17"   Gusts: NA
Location:  36.29°N, 92°W
Report Text: KBPK 291553Z AUTO 32009KT 290V360 7SM OVC026 09/03 A3017 RMK AO2 SLP217 T00890028
Loading
Personal Weather Stations






























Interactive Weather Map New forecast layout! Learn more

10-Day Weather Forecast

Advertisements
Track Severe Weather on mobile